TLPC

Details ICAO TLPC (SLU)
Name Castries/George F L Charles
Region Saint Lucia
Timezone America/St_Lucia (UTC-4.0)
Plans Departing 72
Arriving 90
Stats Elevation 22 ft / 7 m (AMSL)
Location 14.019700° -60.993400°
Runways 1
Magnetic Variation 15.109° W
Sunrise 2019-01-21 10:33:27 UTC / 2019-01-21 06:33:27 Local
Sunset 2019-01-21 21:59:12 UTC / 2019-01-21 17:59:12 Local
Advertisement - Login to hide

Runways

ID Width Length Bearing (true/mag) Surface Threshold Overrun Markings Lighting
09 148 ft / 45 m 5,731 ft / 1,747 m 75.34° / 90.45° ASPHALT 400 ft / 122 m 0 ft / 0 m APP EDGE THRESHOLD
27 148 ft / 45 m 5,731 ft / 1,747 m 255.34° / 270.45° ASPHALT 925 ft / 282 m 0 ft / 0 m APP EDGE THRESHOLD

Map

Weather


0- 5 10 15 20 25 30 35+ Temperature / °C

Clouds and Precipitation
Forecast for 2019-01-22 00:00 UTC. Updated 4 hours ago

Ground ~20,000 ft ~40,000 ft Winds

METAR

TLPC 220000Z 10005KT 9999 FEW022 25/21 Q1018 NOSIG

TAF

Not found

Frequencies

Ground 121.90 MHz
Tower 118.00 MHz
Warning: Do not use this data for real-world aviation or navigation. No guarantee of current accuracy is given.